Terminal Aerodrome Forecast
Issued by NWS

Home | Current Version | Previous Version | Text Only | Print | Product List | Glossary On
Versions: 1 2 3 4 5 6 7 8 9 10 11 12 13 14 15 16
000
FTUS46 KSTO 241700 RRA
TAFRBL
TAF
KRBL 241749Z 2418/2518 16006KT 3SM BR VCSH BKN010 OVC035
      TEMPO 2418/2419 1/4SM FG VV002
     FM241900 18010G15KT 4SM -RA BKN015 OVC030
     FM250000 33015G25KT P6SM SCT050 BKN150
     FM250900 34012KT P6SM SKC=

USA.gov is the U.S. government's official web portal to all federal, state and local government web resources and services.